Time;durP1;ratioP1;P1;durP2;ratioP2;P2;SDS_P1;SDS_P2;PMS_P1;PMS_P2;Temp;Humidity;BMP_temperature;BMP_pressure;BME280_temperature;BME280_humidity;BME280_pressure;Samples;Min_cycle;Max_cycle;Signal;HPM_P1;HPM_P2
2021/03/06 00:01:01;;;;;;;1.58;0.90;;;21.60;29.50;;;;;;5009984;28;20045;-67
2021/03/06 00:03:30;;;;;;;0.52;0.50;;;21.60;29.50;;;;;;5010129;28;20131;-70
2021/03/06 00:05:58;;;;;;;0.93;0.93;;;21.60;29.50;;;;;;4992429;28;20041;-67
2021/03/06 00:08:25;;;;;;;0.70;0.70;;;21.60;29.50;;;;;;5008830;28;20045;-67
2021/03/06 00:10:54;;;;;;;0.93;0.70;;;21.60;29.50;;;;;;4992010;28;20145;-67
2021/03/06 00:13:22;;;;;;;0.63;0.63;;;21.60;29.50;;;;;;5009169;28;20491;-67
2021/03/06 00:15:48;;;;;;;0.85;0.70;;;21.60;29.90;;;;;;5009376;28;20056;-67
2021/03/06 00:18:16;;;;;;;0.93;0.75;;;21.60;29.40;;;;;;4991552;28;20053;-67
2021/03/06 00:20:45;;;;;;;1.00;0.73;;;21.60;29.50;;;;;;5009281;28;20050;-68
2021/03/06 00:23:15;;;;;;;1.27;0.77;;;21.60;29.50;;;;;;5009246;28;20078;-67
2021/03/06 00:25:42;;;;;;;0.65;0.63;;;21.60;29.50;;;;;;5006946;28;20054;-67
2021/03/06 00:28:11;;;;;;;1.02;0.80;;;21.60;29.50;;;;;;5008668;28;20042;-67
2021/03/06 00:30:39;;;;;;;0.75;0.63;;;21.60;29.50;;;;;;5008811;28;20053;-67
2021/03/06 00:33:06;;;;;;;0.50;0.50;;;21.60;29.50;;;;;;5007637;28;20087;-66
2021/03/06 00:35:33;;;;;;;0.95;0.63;;;21.60;29.60;;;;;;5008606;28;20046;-67
2021/03/06 00:37:59;;;;;;;1.30;1.05;;;21.60;29.60;;;;;;4990752;28;20228;-67
2021/03/06 00:40:26;;;;;;;1.50;0.52;;;21.50;29.60;;;;;;5008579;28;20072;-67
2021/03/06 00:42:53;;;;;;;0.88;0.63;;;21.50;29.60;;;;;;5008481;28;20107;-67
2021/03/06 00:45:20;;;;;;;0.40;0.40;;;21.50;29.60;;;;;;5008228;28;20050;-67
2021/03/06 00:47:47;;;;;;;0.90;0.77;;;21.60;29.70;;;;;;5007825;28;20143;-67
2021/03/06 00:50:24;;;;;;;0.70;0.60;;;21.50;29.60;;;;;;5008959;28;20053;-67
2021/03/06 00:52:51;;;;;;;0.52;0.52;;;21.60;29.70;;;;;;5007611;28;20050;-67
2021/03/06 00:55:18;;;;;;;1.02;0.73;;;21.50;29.60;;;;;;5008524;28;20298;-67
2021/03/06 00:57:45;;;;;;;0.60;0.60;;;21.60;29.70;;;;;;5007863;28;20132;-70
2021/03/06 01:00:13;;;;;;;0.80;0.70;;;21.50;29.70;;;;;;4991054;28;20081;-66
2021/03/06 01:02:43;;;;;;;0.70;0.70;;;21.50;29.70;;;;;;5009269;28;20133;-67
2021/03/06 01:05:11;;;;;;;0.73;0.73;;;21.50;29.70;;;;;;5008814;28;20164;-66
2021/03/06 01:07:38;;;;;;;0.65;0.60;;;21.50;29.70;;;;;;5008931;28;20083;-67
2021/03/06 01:10:17;;;;;;;0.95;0.70;;;21.50;29.70;;;;;;5008532;28;20103;-67
2021/03/06 01:12:46;;;;;;;0.80;0.80;;;21.50;29.60;;;;;;4991140;28;20112;-67
2021/03/06 01:15:13;;;;;;;1.55;0.85;;;21.50;29.60;;;;;;4991195;28;20046;-67
2021/03/06 01:17:44;;;;;;;0.75;0.75;;;21.50;29.70;;;;;;5007770;28;20054;-67
2021/03/06 01:20:13;;;;;;;1.00;0.43;;;21.50;29.70;;;;;;5008400;28;20224;-67
2021/03/06 01:22:41;;;;;;;0.70;0.68;;;21.50;29.70;;;;;;5007739;28;20077;-67
2021/03/06 01:25:10;;;;;;;0.82;0.60;;;21.50;29.70;;;;;;5008956;28;20413;-68
2021/03/06 01:27:36;;;;;;;0.85;0.65;;;21.50;29.70;;;;;;5008120;28;20100;-67
2021/03/06 01:30:05;;;;;;;0.50;0.50;;;21.50;29.70;;;;;;5008509;28;20131;-67
2021/03/06 01:32:32;;;;;;;0.60;0.60;;;21.50;29.80;;;;;;5008131;28;20129;-67
2021/03/06 01:34:59;;;;;;;1.15;0.50;;;21.50;29.80;;;;;;5006716;28;20049;-67
2021/03/06 01:37:26;;;;;;;0.60;0.60;;;21.50;29.80;;;;;;5008582;28;20072;-67
2021/03/06 01:39:55;;;;;;;0.80;0.77;;;21.40;29.80;;;;;;5008126;28;20070;-67
2021/03/06 01:42:22;;;;;;;0.50;0.50;;;21.50;29.80;;;;;;5007898;28;20050;-67
2021/03/06 01:44:50;;;;;;;0.60;0.60;;;21.50;29.80;;;;;;5008536;28;20100;-67
2021/03/06 01:47:26;;;;;;;0.60;0.60;;;21.50;29.80;;;;;;5008061;28;20128;-67
2021/03/06 01:49:53;;;;;;;0.70;0.50;;;21.40;29.80;;;;;;5008500;28;20042;-67
2021/03/06 01:52:19;;;;;;;0.60;0.60;;;21.40;29.80;;;;;;5007621;28;20141;-67
2021/03/06 01:54:56;;;;;;;0.93;0.63;;;21.40;29.80;;;;;;5008058;28;20124;-67
2021/03/06 01:57:23;;;;;;;0.50;0.50;;;21.40;29.80;;;;;;5007166;28;20081;-67
2021/03/06 01:59:51;;;;;;;0.65;0.65;;;21.40;29.80;;;;;;5007108;28;20096;-67
2021/03/06 02:02:18;;;;;;;0.50;0.50;;;21.40;29.80;;;;;;5008406;28;20069;-67
2021/03/06 02:04:45;;;;;;;0.77;0.50;;;21.40;29.80;;;;;;5006806;28;20049;-67
2021/03/06 02:07:12;;;;;;;1.25;0.90;;;21.40;29.80;;;;;;5007747;28;20464;-67
2021/03/06 02:09:39;;;;;;;0.80;0.57;;;21.40;29.80;;;;;;5007333;28;20133;-67
2021/03/06 02:12:22;;;;;;;0.60;0.60;;;21.40;29.80;;;;;;5006992;28;20042;-66
2021/03/06 02:15:17;;;;;;;0.90;0.90;;;21.40;29.80;;;;;;5008067;28;20077;-67
2021/03/06 02:18:06;;;;;;;1.20;0.50;;;21.40;29.80;;;;;;5007247;28;20261;-67
2021/03/06 02:21:12;;;;;;;0.68;0.40;;;21.40;29.80;;;;;;5006654;28;20474;-67
2021/03/06 02:24:16;;;;;;;0.80;0.50;;;21.40;29.80;;;;;;5006603;28;20350;-67
2021/03/06 02:27:13;;;;;;;0.82;0.50;;;21.40;29.80;;;;;;5007487;28;20065;-66
2021/03/06 02:29:49;;;;;;;0.52;0.40;;;21.40;29.80;;;;;;5006244;28;20053;-67
2021/03/06 02:32:27;;;;;;;1.13;0.60;;;21.40;29.80;;;;;;5007543;28;20176;-67
2021/03/06 02:35:16;;;;;;;0.73;0.52;;;21.40;29.80;;;;;;5007096;28;20065;-67
2021/03/06 02:37:55;;;;;;;0.95;0.60;;;21.40;29.80;;;;;;4993185;28;20053;-67
2021/03/06 02:40:23;;;;;;;0.47;0.47;;;21.40;29.90;;;;;;5007397;28;20077;-67
2021/03/06 02:42:52;;;;;;;0.88;0.73;;;21.40;29.90;;;;;;5005681;28;20515;-67
2021/03/06 02:45:20;;;;;;;0.73;0.60;;;21.30;29.90;;;;;;5007197;28;20042;-67
2021/03/06 02:47:50;;;;;;;0.40;0.32;;;21.40;30.00;;;;;;5007159;28;20050;-66
2021/03/06 02:50:17;;;;;;;0.38;0.38;;;21.30;29.90;;;;;;5007280;28;20097;-67
2021/03/06 02:52:44;;;;;;;0.75;0.60;;;21.30;29.90;;;;;;5007249;28;20077;-66
2021/03/06 02:55:12;;;;;;;0.40;0.40;;;21.30;29.90;;;;;;5006369;28;20488;-67
2021/03/06 02:58:08;;;;;;;0.98;0.57;;;21.30;29.90;;;;;;5006987;28;20314;-67
2021/03/06 03:00:47;;;;;;;0.28;0.28;;;21.30;29.90;;;;;;4993195;28;20271;-67
2021/03/06 03:03:22;;;;;;;0.40;0.40;;;21.30;30.00;;;;;;5007744;28;20080;-67
2021/03/06 03:06:13;;;;;;;0.60;0.60;;;21.30;30.00;;;;;;5009207;28;20100;-67
2021/03/06 03:09:05;;;;;;;1.00;0.50;;;21.30;30.00;;;;;;5009341;28;20133;-66
2021/03/06 03:12:07;;;;;;;0.90;0.57;;;21.30;30.00;;;;;;5010742;28;20045;-66
2021/03/06 03:14:48;;;;;;;0.50;0.45;;;21.30;30.00;;;;;;5002720;28;20450;-67
2021/03/06 03:17:25;;;;;;;0.80;0.60;;;21.30;30.00;;;;;;5015941;28;20081;-66
2021/03/06 03:20:22;;;;;;;0.43;0.43;;;21.30;30.00;;;;;;5014443;28;20065;-67
2021/03/06 03:22:53;;;;;;;1.10;0.73;;;21.30;30.00;;;;;;5015966;28;20108;-67
2021/03/06 03:25:21;;;;;;;0.32;0.30;;;21.30;30.00;;;;;;5016508;28;20057;-67
2021/03/06 03:27:50;;;;;;;0.60;0.60;;;21.30;30.00;;;;;;5018004;28;20081;-66
2021/03/06 03:30:19;;;;;;;0.60;0.60;;;21.30;30.00;;;;;;5015742;28;20366;-67
2021/03/06 03:32:53;;;;;;;0.63;0.50;;;21.30;30.00;;;;;;5012282;28;20072;-67
2021/03/06 03:35:23;;;;;;;0.50;0.50;;;21.30;30.00;;;;;;5012027;28;20057;-67
2021/03/06 03:37:52;;;;;;;1.00;0.57;;;21.30;30.00;;;;;;5011271;28;20046;-67
2021/03/06 03:40:20;;;;;;;0.50;0.50;;;21.30;30.10;;;;;;4994631;28;20133;-70
2021/03/06 03:42:48;;;;;;;0.38;0.38;;;21.30;30.00;;;;;;5011776;28;20073;-67
2021/03/06 03:45:19;;;;;;;0.40;0.35;;;21.30;30.10;;;;;;5011931;28;20096;-67
2021/03/06 03:47:46;;;;;;;0.55;0.50;;;21.30;30.70;;;;;;5012171;28;20069;-67
2021/03/06 03:50:24;;;;;;;0.40;0.40;;;21.30;30.10;;;;;;5012145;28;20081;-67
2021/03/06 03:52:53;;;;;;;1.15;0.57;;;21.30;30.10;;;;;;5012327;28;20049;-67
2021/03/06 03:55:22;;;;;;;0.50;0.50;;;21.30;30.10;;;;;;5011944;28;20100;-67
2021/03/06 03:57:54;;;;;;;0.52;0.52;;;21.30;30.10;;;;;;5009505;28;20049;-67
2021/03/06 04:00:22;;;;;;;0.77;0.50;;;21.30;30.10;;;;;;5011076;28;20077;-66
2021/03/06 04:02:49;;;;;;;0.70;0.50;;;21.30;30.10;;;;;;5011982;28;20049;-66
2021/03/06 04:05:17;;;;;;;0.57;0.32;;;21.30;30.10;;;;;;5012127;28;20442;-67
2021/03/06 04:07:46;;;;;;;0.50;0.50;;;21.30;30.10;;;;;;5011697;28;20078;-67
2021/03/06 04:10:16;;;;;;;0.30;0.30;;;21.30;30.10;;;;;;5010835;28;20128;-67
2021/03/06 04:12:44;;;;;;;0.38;0.38;;;21.30;30.10;;;;;;5011585;28;20089;-66
2021/03/06 04:15:12;;;;;;;0.77;0.55;;;21.30;30.10;;;;;;5010062;28;20447;-67
2021/03/06 04:17:39;;;;;;;0.77;0.40;;;21.30;30.20;;;;;;5008838;28;20129;-66
2021/03/06 04:20:08;;;;;;;0.40;0.40;;;21.30;30.10;;;;;;5009833;28;20092;-67
2021/03/06 04:22:39;;;;;;;0.35;0.35;;;21.30;30.20;;;;;;5008053;28;20295;-66
2021/03/06 04:25:07;;;;;;;0.70;0.60;;;21.30;30.20;;;;;;5010944;28;20084;-67
2021/03/06 04:27:35;;;;;;;0.43;0.40;;;21.20;30.10;;;;;;5010883;28;20100;-67
2021/03/06 04:30:05;;;;;;;0.45;0.43;;;21.20;30.10;;;;;;5009785;28;20096;-67
2021/03/06 04:32:32;;;;;;;0.32;0.32;;;21.20;30.10;;;;;;5010484;28;20045;-67
2021/03/06 04:34:59;;;;;;;0.30;0.30;;;21.20;30.20;;;;;;5009646;28;20050;-68
2021/03/06 04:37:25;;;;;;;0.60;0.57;;;21.20;30.20;;;;;;5010977;28;20049;-67
2021/03/06 04:39:54;;;;;;;0.43;0.40;;;21.20;30.20;;;;;;5009804;28;20053;-67
2021/03/06 04:42:20;;;;;;;0.40;0.35;;;21.20;30.80;;;;;;5009997;28;20132;-68
2021/03/06 04:44:48;;;;;;;0.40;0.40;;;21.20;30.20;;;;;;5009278;28;20490;-67
2021/03/06 04:47:17;;;;;;;0.43;0.43;;;21.20;30.30;;;;;;5010095;28;20076;-67
2021/03/06 04:49:50;;;;;;;0.32;0.32;;;21.20;30.30;;;;;;5009979;28;20049;-68
2021/03/06 04:52:17;;;;;;;0.47;0.47;;;21.20;30.90;;;;;;5010728;28;20136;-67
2021/03/06 04:54:45;;;;;;;0.20;0.20;;;21.20;30.30;;;;;;5009485;28;20240;-67
2021/03/06 04:57:13;;;;;;;0.60;0.55;;;21.10;30.30;;;;;;5008792;28;20089;-67
2021/03/06 04:59:43;;;;;;;0.75;0.50;;;21.20;30.30;;;;;;5007361;28;20415;-67
2021/03/06 05:02:10;;;;;;;0.40;0.40;;;21.20;30.40;;;;;;5008337;28;20087;-67
2021/03/06 05:04:37;;;;;;;0.32;0.30;;;21.20;30.40;;;;;;4991243;28;20363;-67
2021/03/06 05:07:08;;;;;;;0.45;0.40;;;21.20;30.30;;;;;;5008133;28;20052;-67
2021/03/06 05:09:39;;;;;;;0.35;0.35;;;21.20;30.30;;;;;;5007853;28;20080;-67
2021/03/06 05:12:06;;;;;;;0.45;0.40;;;21.20;30.30;;;;;;5007836;28;20681;-67
2021/03/06 05:14:33;;;;;;;0.57;0.43;;;21.20;30.30;;;;;;5007735;28;20406;-67
2021/03/06 05:17:04;;;;;;;0.47;0.47;;;21.10;30.20;;;;;;5007018;28;20073;-67
2021/03/06 05:19:35;;;;;;;1.52;0.50;;;21.20;30.30;;;;;;5007219;28;20141;-67
2021/03/06 05:22:01;;;;;;;0.55;0.55;;;21.20;30.30;;;;;;4990489;28;20081;-67
2021/03/06 05:24:32;;;;;;;;;;;21.20;30.30;;;;;;5008653;28;20046;-67
2021/03/06 05:27:01;;;;;;;0.40;0.35;;;21.10;30.30;;;;;;5008179;28;19925;-67
2021/03/06 05:29:30;;;;;;;0.28;0.28;;;21.10;30.30;;;;;;5006551;28;20053;-67
2021/03/06 05:31:58;;;;;;;0.40;0.32;;;21.10;30.30;;;;;;5007634;28;20128;-67
2021/03/06 05:34:28;;;;;;;0.30;0.30;;;21.20;30.30;;;;;;5007247;28;20096;-67
2021/03/06 05:36:54;;;;;;;0.43;0.40;;;21.20;30.40;;;;;;5007824;28;20041;-67
2021/03/06 05:39:22;;;;;;;0.60;0.40;;;21.10;30.30;;;;;;5007421;28;20085;-66
2021/03/06 05:41:49;;;;;;;0.45;0.43;;;21.10;30.30;;;;;;5006725;28;20655;-68
2021/03/06 05:44:17;;;;;;;0.73;0.50;;;21.10;30.30;;;;;;5007409;28;20396;-67
2021/03/06 05:46:57;;;;;;;0.63;0.45;;;21.10;30.30;;;;;;5007748;28;20309;-67
2021/03/06 05:49:24;;;;;;;0.20;0.20;;;21.20;30.30;;;;;;5007446;28;20054;-67
2021/03/06 05:51:52;;;;;;;0.40;0.40;;;21.20;30.30;;;;;;4989958;28;20074;-67
2021/03/06 05:54:24;;;;;;;0.68;0.50;;;21.20;30.30;;;;;;5007273;28;20527;-67
2021/03/06 05:56:51;;;;;;;0.73;0.50;;;21.20;30.30;;;;;;5007351;28;20096;-67
2021/03/06 05:59:21;;;;;;;0.30;0.30;;;21.20;30.30;;;;;;5005744;28;20136;-67
2021/03/06 06:01:48;;;;;;;0.30;0.30;;;21.20;30.30;;;;;;5007236;28;20558;-67
2021/03/06 06:04:20;;;;;;;0.60;0.60;;;21.20;30.30;;;;;;5007066;28;20053;-67
2021/03/06 06:06:52;;;;;;;0.63;0.40;;;21.20;30.20;;;;;;5006533;28;20456;-68
2021/03/06 06:09:18;;;;;;;1.15;0.50;;;21.20;30.10;;;;;;5007128;28;20088;-68
2021/03/06 06:11:45;;;;;;;0.63;0.50;;;21.30;30.00;;;;;;5006198;28;20085;-67
2021/03/06 06:14:12;;;;;;;1.00;0.95;;;21.30;29.90;;;;;;5007281;28;20046;-67
2021/03/06 06:16:42;;;;;;;0.95;0.90;;;21.30;29.90;;;;;;4990012;28;20041;-66
2021/03/06 06:19:12;;;;;;;0.95;0.65;;;21.30;29.80;;;;;;5007660;28;20060;-68
2021/03/06 06:21:44;;;;;;;0.90;0.85;;;21.30;29.70;;;;;;5007453;28;20046;-69
2021/03/06 06:24:14;;;;;;;0.73;0.73;;;21.30;29.60;;;;;;5006990;28;20101;-68
2021/03/06 06:26:56;;;;;;;0.85;0.77;;;21.30;30.00;;;;;;5006736;28;20124;-67
2021/03/06 06:29:40;;;;;;;0.68;0.63;;;21.30;29.50;;;;;;5007120;28;20057;-67
2021/03/06 06:32:08;;;;;;;1.00;0.98;;;21.40;29.40;;;;;;5006961;28;20133;-67
2021/03/06 06:34:37;;;;;;;0.95;0.88;;;21.40;29.40;;;;;;5006846;28;20253;-67
2021/03/06 06:37:10;;;;;;;1.05;0.80;;;21.50;29.30;;;;;;5007532;28;20050;-67
2021/03/06 06:39:37;;;;;;;1.10;1.00;;;21.50;29.20;;;;;;4989599;28;20054;-68
2021/03/06 06:42:04;;;;;;;1.40;1.30;;;21.60;29.10;;;;;;5007187;28;20134;-67
2021/03/06 06:44:31;;;;;;;2.13;1.30;;;21.60;29.00;;;;;;5007148;28;20078;-67
2021/03/06 06:47:16;;;;;;;1.50;1.20;;;21.70;28.90;;;;;;5007607;28;20130;-68
2021/03/06 06:49:48;;;;;;;1.08;0.88;;;21.80;28.90;;;;;;5011344;28;20136;-67
2021/03/06 06:52:17;;;;;;;1.33;1.05;;;21.90;28.80;;;;;;5011677;28;20045;-67
2021/03/06 06:54:57;;;;;;;1.15;1.13;;;22.00;28.80;;;;;;5009550;28;20130;-67
2021/03/06 06:57:25;;;;;;;1.77;1.25;;;22.00;28.70;;;;;;5011130;28;20056;-68
2021/03/06 07:00:02;;;;;;;1.13;0.88;;;22.10;28.60;;;;;;5010583;28;20054;-68
2021/03/06 07:02:30;;;;;;;0.80;0.80;;;22.20;28.60;;;;;;5011416;28;20077;-67
2021/03/06 07:05:03;;;;;;;1.20;1.10;;;22.30;28.50;;;;;;5011294;28;20050;-67
2021/03/06 07:07:41;;;;;;;1.30;1.20;;;22.30;28.30;;;;;;5010720;28;20060;-68
2021/03/06 07:10:10;;;;;;;1.08;1.08;;;22.40;28.20;;;;;;5010951;28;20412;-68
2021/03/06 07:12:44;;;;;;;1.25;1.15;;;22.50;28.20;;;;;;5010969;28;20046;-67
2021/03/06 07:15:22;;;;;;;1.10;1.00;;;22.50;28.20;;;;;;5010343;28;20144;-67
2021/03/06 07:17:55;;;;;;;1.45;1.20;;;22.60;28.10;;;;;;5010627;28;20147;-67
2021/03/06 07:20:33;;;;;;;1.38;1.10;;;22.70;28.00;;;;;;5010525;28;20081;-68
2021/03/06 07:23:16;;;;;;;1.73;1.17;;;22.70;27.90;;;;;;5010153;28;20093;-68
2021/03/06 07:25:44;;;;;;;2.15;1.52;;;22.80;27.80;;;;;;5010440;28;20081;-67
2021/03/06 07:28:10;;;;;;;1.35;1.00;;;22.80;27.70;;;;;;5010587;28;20569;-67
2021/03/06 07:30:38;;;;;;;1.23;0.93;;;22.90;27.70;;;;;;5010127;28;20120;-68
2021/03/06 07:33:08;;;;;;;1.35;1.25;;;22.90;27.60;;;;;;5010426;28;20330;-66
2021/03/06 07:35:37;;;;;;;1.40;1.27;;;23.00;27.60;;;;;;5010365;28;20435;-67
2021/03/06 07:38:06;;;;;;;1.65;1.08;;;23.00;27.50;;;;;;5010805;28;20517;-67
2021/03/06 07:40:41;;;;;;;1.58;1.48;;;23.10;27.50;;;;;;5010000;28;20135;-67
2021/03/06 07:43:13;;;;;;;1.55;1.42;;;23.20;27.50;;;;;;5010036;28;20077;-67
2021/03/06 07:45:45;;;;;;;1.83;1.20;;;23.20;27.40;;;;;;5010271;28;20507;-67
2021/03/06 07:48:15;;;;;;;1.30;1.20;;;23.30;27.40;;;;;;5010323;28;20054;-67
2021/03/06 07:50:53;;;;;;;1.60;1.23;;;23.40;27.40;;;;;;5010675;28;20073;-67
2021/03/06 07:53:25;;;;;;;1.13;1.02;;;23.30;27.30;;;;;;5010443;28;20141;-68
2021/03/06 07:55:55;;;;;;;1.23;1.13;;;23.40;27.20;;;;;;4992911;28;20482;-68
2021/03/06 07:58:22;;;;;;;1.20;0.98;;;23.50;27.20;;;;;;5008723;28;20069;-67
2021/03/06 08:01:26;;;;;;;1.52;1.20;;;23.50;27.10;;;;;;4995333;28;20112;-67
2021/03/06 08:03:54;;;;;;;1.20;1.10;;;23.60;27.10;;;;;;5010653;28;20112;-68
2021/03/06 08:06:27;;;;;;;1.35;1.25;;;23.60;27.00;;;;;;5009413;28;20061;-67
2021/03/06 08:08:57;;;;;;;1.15;1.05;;;23.70;27.00;;;;;;5009545;28;20046;-67
2021/03/06 08:11:40;;;;;;;1.23;1.13;;;23.70;26.90;;;;;;5009829;28;20077;-67
2021/03/06 08:14:35;;;;;;;1.10;1.10;;;23.80;26.90;;;;;;5009943;28;20458;-67
2021/03/06 08:17:02;;;;;;;0.90;0.90;;;23.80;26.80;;;;;;5010498;28;20314;-67
2021/03/06 08:19:31;;;;;;;1.73;1.20;;;23.90;26.80;;;;;;5008334;28;20307;-67
2021/03/06 08:22:14;;;;;;;1.67;1.20;;;23.90;26.70;;;;;;5009680;28;20145;-67
2021/03/06 08:24:44;;;;;;;1.00;0.90;;;24.00;26.70;;;;;;5009513;28;20042;-67
2021/03/06 08:27:13;;;;;;;1.48;1.38;;;24.00;26.70;;;;;;5009324;28;20092;-67
2021/03/06 08:29:48;;;;;;;2.08;1.88;;;24.10;26.60;;;;;;5008510;28;20496;-67
2021/03/06 08:32:27;;;;;;;1.23;1.20;;;24.10;26.60;;;;;;5008726;28;20107;-67
2021/03/06 08:34:55;;;;;;;2.85;1.30;;;24.10;26.50;;;;;;5009182;28;20077;-67
2021/03/06 08:37:30;;;;;;;1.10;1.00;;;24.20;26.50;;;;;;5007826;28;20053;-67
2021/03/06 08:40:08;;;;;;;2.25;1.20;;;24.20;26.50;;;;;;5008898;28;20081;-66
2021/03/06 08:42:45;;;;;;;1.77;1.35;;;24.30;26.40;;;;;;5008532;28;20268;-67
2021/03/06 08:45:18;;;;;;;1.20;1.10;;;24.30;26.30;;;;;;5008777;28;20423;-67
2021/03/06 08:47:47;;;;;;;1.05;0.95;;;24.30;26.30;;;;;;5011022;28;20488;-68
2021/03/06 08:50:20;;;;;;;1.90;1.52;;;24.40;26.30;;;;;;5010363;28;20061;-67
2021/03/06 08:53:05;;;;;;;1.92;1.42;;;24.40;26.30;;;;;;5010024;28;20132;-67
2021/03/06 08:55:34;;;;;;;1.30;1.20;;;24.50;26.20;;;;;;5010631;28;20077;-67
2021/03/06 08:58:07;;;;;;;1.45;1.35;;;24.50;26.20;;;;;;5010683;28;20054;-67
2021/03/06 09:00:39;;;;;;;1.25;1.15;;;24.60;26.10;;;;;;5010091;28;20056;-67
2021/03/06 09:03:16;;;;;;;1.30;1.20;;;24.60;26.10;;;;;;5010821;28;20479;-68
2021/03/06 09:05:52;;;;;;;1.15;1.05;;;24.70;26.10;;;;;;5010328;28;20049;-67
2021/03/06 09:08:21;;;;;;;1.55;1.20;;;24.70;26.00;;;;;;5010422;28;20046;-68
2021/03/06 09:10:50;;;;;;;0.95;0.95;;;24.70;26.00;;;;;;5009931;28;20492;-68
2021/03/06 09:13:23;;;;;;;1.30;1.10;;;24.80;26.00;;;;;;5010508;28;20046;-67
2021/03/06 09:15:57;;;;;;;1.75;1.27;;;24.80;26.00;;;;;;5010691;28;20046;-68
2021/03/06 09:18:31;;;;;;;2.10;1.50;;;24.90;25.90;;;;;;5010319;28;20050;-68
2021/03/06 09:21:01;;;;;;;1.90;1.58;;;24.90;25.80;;;;;;5009902;28;20085;-68
2021/03/06 09:23:40;;;;;;;1.02;0.93;;;24.90;26.20;;;;;;5010988;28;20050;-67
2021/03/06 09:26:14;;;;;;;1.95;1.33;;;24.90;25.80;;;;;;5010098;28;20053;-69
2021/03/06 09:28:47;;;;;;;1.17;1.08;;;25.00;25.70;;;;;;5010647;28;20053;-67
2021/03/06 09:31:21;;;;;;;1.98;1.48;;;25.00;25.60;;;;;;5010047;28;20112;-67
2021/03/06 09:33:51;;;;;;;2.20;1.30;;;25.10;25.60;;;;;;5010242;28;20148;-67
2021/03/06 09:36:20;;;;;;;1.23;1.13;;;25.10;25.60;;;;;;5009086;28;20607;-67
2021/03/06 09:38:54;;;;;;;0.90;0.90;;;25.10;25.50;;;;;;5009356;28;20129;-67
2021/03/06 09:41:31;;;;;;;1.20;1.10;;;25.20;25.50;;;;;;4992903;28;20140;-67
2021/03/06 09:44:02;;;;;;;1.20;1.10;;;25.20;25.60;;;;;;5010103;28;20049;-66
2021/03/06 09:46:31;;;;;;;2.17;1.20;;;25.30;25.50;;;;;;5010039;28;20058;-67
2021/03/06 09:49:09;;;;;;;1.30;1.20;;;25.30;25.50;;;;;;5010076;28;20101;-67
2021/03/06 09:51:52;;;;;;;1.17;1.08;;;25.40;25.40;;;;;;5009954;28;20053;-67
2021/03/06 09:54:21;;;;;;;1.02;1.00;;;25.40;25.40;;;;;;5010130;28;20080;-67
2021/03/06 09:56:54;;;;;;;1.58;1.42;;;25.40;25.40;;;;;;5009891;28;20505;-67
2021/03/06 09:59:25;;;;;;;1.60;1.23;;;25.40;25.30;;;;;;5009753;28;20053;-70
2021/03/06 10:01:51;;;;;;;1.27;1.10;;;25.40;25.30;;;;;;5009224;28;20081;-68
2021/03/06 10:04:22;;;;;;;2.22;1.40;;;25.50;25.30;;;;;;5009773;28;20046;-67
2021/03/06 10:06:52;;;;;;;1.37;1.20;;;25.50;25.20;;;;;;5009833;28;20491;-67
2021/03/06 10:09:24;;;;;;;2.25;1.58;;;25.60;25.20;;;;;;5009659;28;20050;-67
2021/03/06 10:11:54;;;;;;;1.65;1.08;;;25.60;25.20;;;;;;4992403;28;20133;-68
2021/03/06 10:14:26;;;;;;;1.30;1.20;;;25.60;25.10;;;;;;5009802;28;20498;-67
2021/03/06 10:16:58;;;;;;;1.20;1.05;;;25.60;25.10;;;;;;5009861;28;20388;-68
2021/03/06 10:19:28;;;;;;;1.17;0.98;;;25.60;25.00;;;;;;5008575;28;20046;-68
2021/03/06 10:22:06;;;;;;;0.88;0.80;;;25.70;25.00;;;;;;5008530;28;20096;-68
2021/03/06 10:24:56;;;;;;;1.48;1.35;;;25.70;25.00;;;;;;5009321;28;20050;-67
2021/03/06 10:27:38;;;;;;;0.90;0.90;;;25.70;24.90;;;;;;5009505;28;20155;-68
2021/03/06 10:30:20;;;;;;;1.45;1.20;;;25.70;24.90;;;;;;4993958;28;20316;-68
2021/03/06 10:32:52;;;;;;;1.33;1.17;;;25.70;24.90;;;;;;5009515;28;20038;-68
2021/03/06 10:35:38;;;;;;;1.30;1.23;;;25.70;24.90;;;;;;5009543;28;20251;-70
2021/03/06 10:38:10;;;;;;;0.80;0.80;;;25.70;24.80;;;;;;5009584;28;20073;-67
2021/03/06 10:41:02;;;;;;;1.02;1.00;;;25.70;24.70;;;;;;5007982;28;20554;-67
2021/03/06 10:43:40;;;;;;;1.48;1.20;;;25.70;24.70;;;;;;4995441;28;20058;-68
2021/03/06 10:46:24;;;;;;;1.20;1.08;;;25.70;24.70;;;;;;5009146;28;20049;-68
2021/03/06 10:48:53;;;;;;;1.02;0.90;;;25.80;24.70;;;;;;5009244;28;20046;-68
2021/03/06 10:51:21;;;;;;;1.37;1.23;;;25.80;24.60;;;;;;5007717;28;20357;-67
2021/03/06 10:54:03;;;;;;;0.80;0.80;;;25.80;24.60;;;;;;5009520;28;20085;-67
2021/03/06 10:56:29;;;;;;;1.10;1.00;;;25.80;24.60;;;;;;4992040;28;20435;-67
2021/03/06 10:58:59;;;;;;;0.85;0.85;;;25.90;24.60;;;;;;5007201;28;20100;-67
2021/03/06 11:01:43;;;;;;;1.90;1.13;;;25.80;24.50;;;;;;5009004;28;20122;-67
2021/03/06 11:04:29;;;;;;;0.88;0.88;;;25.90;24.50;;;;;;5009128;28;20096;-67
2021/03/06 11:06:59;;;;;;;1.63;1.35;;;25.90;24.50;;;;;;5008771;28;20050;-67
2021/03/06 11:09:46;;;;;;;1.42;1.00;;;25.90;24.40;;;;;;5007506;28;20650;-67
2021/03/06 11:12:21;;;;;;;1.00;0.80;;;25.90;24.30;;;;;;5008508;28;20096;-67
2021/03/06 11:15:11;;;;;;;0.80;0.80;;;25.80;24.30;;;;;;5008452;28;20050;-67
2021/03/06 11:17:40;;;;;;;1.45;1.23;;;25.70;24.30;;;;;;5008368;28;20045;-67
2021/03/06 11:20:14;;;;;;;1.10;1.00;;;25.70;24.40;;;;;;5008373;28;20161;-66
2021/03/06 11:22:43;;;;;;;1.00;0.90;;;25.70;24.40;;;;;;5007965;28;20050;-68
2021/03/06 11:25:13;;;;;;;;;;;25.60;24.40;;;;;;5007392;28;20084;-68
2021/03/06 11:27:52;;;;;;;1.90;1.10;;;25.60;24.50;;;;;;5006349;28;19929;-68
2021/03/06 11:30:25;;;;;;;0.80;0.73;;;25.60;24.50;;;;;;5006898;28;20053;-68
2021/03/06 11:32:53;;;;;;;0.90;0.90;;;25.60;24.50;;;;;;5009082;28;20049;-67
2021/03/06 11:35:22;;;;;;;1.25;1.05;;;25.50;24.40;;;;;;5010705;28;20396;-67
2021/03/06 11:37:51;;;;;;;1.25;0.93;;;25.50;24.40;;;;;;5009899;28;20054;-68
2021/03/06 11:40:23;;;;;;;0.90;0.90;;;25.50;24.40;;;;;;5008895;28;20045;-68
2021/03/06 11:42:54;;;;;;;1.80;1.08;;;25.50;24.30;;;;;;5009545;28;20050;-67
2021/03/06 11:45:22;;;;;;;1.17;1.08;;;25.40;24.30;;;;;;5009534;28;20096;-67
2021/03/06 11:47:51;;;;;;;1.45;1.00;;;25.40;24.40;;;;;;5010301;28;20419;-67
2021/03/06 11:50:21;;;;;;;0.93;0.93;;;25.40;24.40;;;;;;5010412;28;20073;-67
2021/03/06 11:52:48;;;;;;;1.90;1.00;;;25.30;24.40;;;;;;5010423;28;20056;-66
2021/03/06 11:55:15;;;;;;;1.00;0.90;;;25.30;24.40;;;;;;5009533;28;20046;-67
2021/03/06 11:57:43;;;;;;;1.10;1.00;;;25.30;24.40;;;;;;5008998;28;20530;-67
2021/03/06 12:00:14;;;;;;;2.00;0.95;;;25.30;24.50;;;;;;5009824;28;20105;-67
2021/03/06 12:02:41;;;;;;;;;;;25.30;24.40;;;;;;4993262;28;20041;-66
2021/03/06 12:05:15;;;;;;;1.08;0.98;;;25.30;24.40;;;;;;5010765;28;20016;-70
2021/03/06 12:07:52;;;;;;;1.30;1.10;;;25.20;24.40;;;;;;5008445;28;20108;-67
2021/03/06 12:10:21;;;;;;;1.17;0.90;;;25.20;24.40;;;;;;5009505;28;20077;-67
2021/03/06 12:12:54;;;;;;;1.10;1.00;;;25.20;24.40;;;;;;5013845;28;20060;-67
2021/03/06 12:15:21;;;;;;;0.73;0.73;;;25.20;24.40;;;;;;5013322;28;20155;-67
2021/03/06 12:17:48;;;;;;;1.30;1.00;;;25.20;24.40;;;;;;5011658;28;20092;-67
2021/03/06 12:20:32;;;;;;;0.93;0.90;;;25.20;24.40;;;;;;5011472;28;20083;-67
2021/03/06 12:22:59;;;;;;;0.93;0.88;;;25.20;24.30;;;;;;5012476;28;20046;-68
2021/03/06 12:25:25;;;;;;;0.82;0.80;;;25.20;24.30;;;;;;5013197;28;20069;-67
2021/03/06 12:27:52;;;;;;;1.48;1.38;;;25.20;24.30;;;;;;4996241;28;20092;-68
2021/03/06 12:30:22;;;;;;;1.00;0.80;;;25.20;24.40;;;;;;5008721;28;20073;-67
2021/03/06 12:32:50;;;;;;;0.95;0.80;;;25.10;24.20;;;;;;5008933;28;20050;-67
2021/03/06 12:35:19;;;;;;;0.70;0.70;;;25.10;24.20;;;;;;5007314;28;20338;-67
2021/03/06 12:37:49;;;;;;;0.98;0.90;;;25.10;24.20;;;;;;5008634;28;20474;-67
2021/03/06 12:40:16;;;;;;;1.27;0.88;;;25.10;24.20;;;;;;5008783;28;20609;-68
2021/03/06 12:42:43;;;;;;;1.23;0.80;;;25.10;24.20;;;;;;5008841;28;20452;-68
2021/03/06 12:45:12;;;;;;;0.80;0.80;;;25.10;24.10;;;;;;5007193;28;20523;-67
2021/03/06 12:47:41;;;;;;;0.60;0.57;;;25.10;24.20;;;;;;5007875;28;20046;-67
2021/03/06 12:50:09;;;;;;;0.77;0.60;;;25.00;24.20;;;;;;5008227;28;20138;-68
2021/03/06 12:52:36;;;;;;;0.88;0.68;;;25.10;24.20;;;;;;5008454;28;20066;-67
2021/03/06 12:55:09;;;;;;;0.70;0.68;;;25.00;24.20;;;;;;5008892;28;20464;-68
2021/03/06 12:57:36;;;;;;;1.05;0.68;;;25.00;24.20;;;;;;4990698;28;20137;-68
2021/03/06 13:00:04;;;;;;;2.28;0.50;;;25.00;24.10;;;;;;5007119;28;20050;-68
2021/03/06 13:02:52;;;;;;;1.65;0.77;;;25.00;24.10;;;;;;5008432;28;20124;-68
2021/03/06 13:05:24;;;;;;;0.80;0.80;;;25.00;24.10;;;;;;5008038;28;20077;-68
2021/03/06 13:07:52;;;;;;;0.70;0.65;;;25.00;24.10;;;;;;5008459;28;20184;-68
2021/03/06 13:10:22;;;;;;;1.08;0.60;;;25.00;24.10;;;;;;4990700;28;20133;-67
2021/03/06 13:12:48;;;;;;;0.57;0.57;;;25.00;24.10;;;;;;5007581;28;20086;-68